Time;durP1;ratioP1;P1;durP2;ratioP2;P2;SDS_P1;SDS_P2;PMS_P1;PMS_P2;Temp;Humidity;BMP_temperature;BMP_pressure;BME280_temperature;BME280_humidity;BME280_pressure;Samples;Min_cycle;Max_cycle;Signal;HPM_P1;HPM_P2
2022/06/16 00:00:52;;;;;;;2.13;0.40;;;16.30;99.90;;;;;;5030261;28;20037;-46
2022/06/16 00:03:18;;;;;;;2.55;0.38;;;16.30;99.90;;;;;;5024798;28;20034;-46
2022/06/16 00:05:44;;;;;;;1.52;0.30;;;16.30;99.90;;;;;;5027651;28;20091;-46
2022/06/16 00:08:13;;;;;;;2.60;0.40;;;16.30;99.90;;;;;;5033067;28;20052;-47
2022/06/16 00:11:28;;;;;;;2.08;0.40;;;16.30;99.90;;;;;;5030349;28;20073;-49
2022/06/16 00:13:32;;;;;;;2.97;0.45;;;16.30;99.90;;;;;;5019481;28;20136;-47
2022/06/16 00:15:58;;;;;;;3.85;0.32;;;16.30;99.90;;;;;;5023042;28;20045;-47
2022/06/16 00:18:24;;;;;;;3.15;0.40;;;16.20;99.90;;;;;;5027797;28;20053;-48
2022/06/16 00:20:50;;;;;;;3.88;0.50;;;16.20;99.90;;;;;;5022583;28;20045;-48
2022/06/16 00:23:16;;;;;;;5.05;0.60;;;16.20;99.90;;;;;;5027473;28;20442;-46
2022/06/16 00:25:42;;;;;;;3.50;0.57;;;16.20;99.90;;;;;;5026171;28;20051;-46
2022/06/16 00:28:08;;;;;;;3.33;0.30;;;16.20;99.90;;;;;;5027731;28;20491;-46
2022/06/16 00:30:34;;;;;;;2.50;0.40;;;16.20;99.90;;;;;;5013098;28;20598;-50
2022/06/16 00:32:59;;;;;;;3.05;0.47;;;16.10;99.90;;;;;;5029575;28;20128;-47
2022/06/16 00:35:25;;;;;;;3.97;0.43;;;16.10;99.90;;;;;;5024733;28;20592;-46
2022/06/16 00:37:51;;;;;;;3.38;0.35;;;16.10;99.90;;;;;;5011560;28;20509;-48
2022/06/16 00:40:16;;;;;;;2.53;0.40;;;16.10;99.90;;;;;;5034387;28;20497;-45
2022/06/16 00:42:45;;;;;;;2.90;0.40;;;16.10;99.90;;;;;;5024917;28;20068;-44
2022/06/16 00:45:42;;;;;;;3.17;0.50;;;16.00;99.90;;;;;;5028015;28;20029;-45
2022/06/16 00:48:10;;;;;;;2.60;0.30;;;16.00;99.90;;;;;;5029445;28;20037;-47
2022/06/16 00:50:37;;;;;;;2.67;0.40;;;16.00;99.90;;;;;;5029832;28;20099;-47
2022/06/16 00:53:02;;;;;;;4.13;0.40;;;16.00;99.90;;;;;;5047460;28;20109;-47
2022/06/16 00:55:28;;;;;;;2.80;0.38;;;15.90;99.90;;;;;;5030448;28;20110;-48
2022/06/16 00:57:55;;;;;;;3.53;0.40;;;15.90;99.90;;;;;;5031028;28;20515;-47
2022/06/16 01:03:06;;;;;;;3.13;0.40;;;15.90;99.90;;;;;;5030505;28;20048;-47
2022/06/16 01:05:32;;;;;;;4.43;0.40;;;15.80;99.90;;;;;;5025658;28;20518;-45
2022/06/16 01:07:58;;;;;;;2.58;0.40;;;15.80;99.90;;;;;;5017648;28;20038;-46
2022/06/16 01:10:29;;;;;;;3.00;0.35;;;15.80;99.90;;;;;;5022763;28;20630;-46
2022/06/16 01:16:19;;;;;;;2.50;0.50;;;15.80;99.90;;;;;;5020423;28;20041;-46
2022/06/16 01:19:19;;;;;;;2.75;0.40;;;15.80;99.90;;;;;;5025247;28;20494;-46
2022/06/16 01:22:07;;;;;;;4.15;0.28;;;15.70;99.90;;;;;;5024027;28;20044;-45
2022/06/16 01:24:57;;;;;;;3.17;0.40;;;15.70;99.90;;;;;;5026043;28;20045;-46
2022/06/16 01:27:38;;;;;;;3.15;0.45;;;15.70;99.90;;;;;;5047181;28;20037;-46
2022/06/16 01:30:12;;;;;;;3.25;0.40;;;15.70;99.90;;;;;;5027260;28;20517;-50
2022/06/16 01:32:50;;;;;;;1.55;0.40;;;15.60;99.90;;;;;;5026321;28;20053;-47
2022/06/16 01:35:28;;;;;;;2.63;0.40;;;15.60;99.90;;;;;;5028345;28;20041;-46
2022/06/16 01:38:30;;;;;;;2.78;0.47;;;15.60;99.90;;;;;;5018744;28;20034;-48
2022/06/16 01:41:09;;;;;;;3.20;0.45;;;15.60;99.90;;;;;;5028439;28;20048;-46
2022/06/16 01:44:03;;;;;;;1.67;0.20;;;15.60;99.90;;;;;;5025004;28;20050;-46
2022/06/16 01:46:32;;;;;;;3.42;0.30;;;15.60;99.90;;;;;;5023533;28;20072;-46
2022/06/16 01:49:26;;;;;;;1.83;0.50;;;15.60;99.90;;;;;;5025804;28;20041;-46
2022/06/16 01:52:01;;;;;;;1.70;0.30;;;15.60;99.90;;;;;;5026553;28;20119;-46
2022/06/16 01:54:56;;;;;;;1.58;0.30;;;15.60;99.90;;;;;;5023594;28;20120;-46
2022/06/16 01:57:37;;;;;;;2.03;0.40;;;15.50;99.90;;;;;;5018765;28;20160;-49
2022/06/16 02:00:10;;;;;;;2.65;0.30;;;15.60;99.90;;;;;;5009036;28;20040;-46
2022/06/16 02:02:39;;;;;;;2.88;0.50;;;15.50;99.90;;;;;;5026208;28;20411;-44
2022/06/16 02:05:15;;;;;;;3.80;0.30;;;15.60;99.90;;;;;;5011476;28;20072;-45
2022/06/16 02:07:54;;;;;;;2.15;0.30;;;15.60;99.90;;;;;;5027046;28;20703;-45
2022/06/16 02:10:35;;;;;;;2.47;0.30;;;15.60;99.90;;;;;;5025417;28;20061;-46
2022/06/16 02:13:04;;;;;;;1.85;0.30;;;15.60;99.90;;;;;;5024507;28;20334;-45
2022/06/16 02:15:56;;;;;;;3.60;0.40;;;15.50;99.90;;;;;;5044984;28;20049;-46
2022/06/16 02:18:25;;;;;;;1.80;0.28;;;15.50;99.90;;;;;;5021503;28;20050;-46
2022/06/16 02:20:59;;;;;;;4.03;0.57;;;15.50;99.90;;;;;;5026951;28;20519;-45
2022/06/16 02:23:24;;;;;;;;;;;15.50;99.90;;;;;;5019308;28;20052;-45
2022/06/16 02:25:54;;;;;;;3.03;0.30;;;15.40;99.90;;;;;;5023415;28;20016;-45
2022/06/16 02:28:21;;;;;;;2.00;0.22;;;15.50;99.90;;;;;;5011406;28;20047;-45
2022/06/16 02:31:07;;;;;;;2.05;0.30;;;15.50;99.90;;;;;;5024830;28;20076;-45
2022/06/16 02:33:47;;;;;;;2.63;0.30;;;15.50;99.90;;;;;;5033017;28;20141;-45
2022/06/16 02:36:21;;;;;;;2.15;0.30;;;15.50;99.90;;;;;;5028863;28;20075;-47
2022/06/16 02:39:06;;;;;;;1.67;0.20;;;15.40;99.90;;;;;;5011365;28;20046;-44
2022/06/16 02:42:15;;;;;;;3.53;0.30;;;15.50;99.90;;;;;;5017806;28;20602;-46
2022/06/16 02:45:03;;;;;;;3.47;0.30;;;15.50;99.90;;;;;;5021111;28;20131;-44
2022/06/16 02:47:44;;;;;;;2.35;0.30;;;15.40;99.90;;;;;;5045601;28;20046;-44
2022/06/16 02:50:21;;;;;;;1.73;0.20;;;15.50;99.90;;;;;;5030145;28;20042;-45
2022/06/16 02:52:51;;;;;;;1.92;0.22;;;15.40;99.90;;;;;;5025836;28;20491;-44
2022/06/16 02:55:30;;;;;;;2.78;0.30;;;15.40;99.90;;;;;;5032192;28;21289;-45
2022/06/16 02:57:59;;;;;;;2.80;0.30;;;15.40;99.90;;;;;;5028212;28;20120;-46
2022/06/16 03:00:31;;;;;;;3.28;0.50;;;15.40;99.90;;;;;;5026399;28;20491;-45
2022/06/16 03:02:56;;;;;;;1.50;0.20;;;15.40;99.90;;;;;;5033139;28;20168;-45
2022/06/16 03:05:22;;;;;;;3.30;0.30;;;15.40;99.90;;;;;;5019477;28;20112;-45
2022/06/16 03:07:48;;;;;;;1.70;0.20;;;15.40;99.90;;;;;;5014889;28;20392;-44
2022/06/16 03:10:50;;;;;;;2.85;0.30;;;15.40;99.90;;;;;;5018921;28;20067;-46
2022/06/16 03:13:05;;;;;;;3.17;0.35;;;15.40;99.90;;;;;;5025815;28;20464;-44
2022/06/16 03:15:30;;;;;;;3.25;0.30;;;15.40;99.90;;;;;;5030796;28;20091;-44
2022/06/16 03:17:56;;;;;;;2.75;0.20;;;15.40;99.90;;;;;;5025568;28;20050;-44
2022/06/16 03:20:22;;;;;;;2.08;0.30;;;15.40;99.90;;;;;;5025739;28;20033;-45
2022/06/16 03:22:47;;;;;;;2.70;0.30;;;15.40;99.90;;;;;;5025912;28;20103;-45
2022/06/16 03:25:13;;;;;;;3.08;0.40;;;15.40;99.90;;;;;;5026892;28;20288;-48
2022/06/16 03:27:38;;;;;;;5.00;0.35;;;15.40;99.90;;;;;;5027779;28;20131;-46
2022/06/16 03:30:05;;;;;;;1.77;0.30;;;15.40;99.90;;;;;;5017693;28;20041;-44
2022/06/16 03:32:31;;;;;;;3.35;0.30;;;15.40;99.90;;;;;;5028561;28;20088;-45
2022/06/16 03:34:56;;;;;;;2.00;0.22;;;15.40;99.90;;;;;;5026442;28;20106;-45
2022/06/16 03:37:23;;;;;;;2.47;0.40;;;15.40;99.90;;;;;;5023128;28;20563;-45
2022/06/16 03:39:49;;;;;;;3.03;0.50;;;15.40;99.90;;;;;;5019559;28;20041;-44
2022/06/16 03:42:15;;;;;;;2.20;0.30;;;15.40;99.90;;;;;;5029252;28;20090;-46
2022/06/16 03:44:41;;;;;;;2.40;0.50;;;15.50;99.90;;;;;;5041140;28;20037;-46
2022/06/16 03:47:06;;;;;;;2.22;0.20;;;15.50;99.90;;;;;;5040066;28;20053;-45
2022/06/16 03:49:32;;;;;;;2.55;0.30;;;15.50;99.90;;;;;;5028891;28;20044;-47
2022/06/16 03:51:58;;;;;;;3.33;0.40;;;15.50;99.90;;;;;;5018155;28;20064;-46
2022/06/16 03:54:23;;;;;;;2.88;0.30;;;15.50;99.90;;;;;;5011570;28;20114;-47
2022/06/16 03:56:49;;;;;;;2.50;0.40;;;15.50;99.90;;;;;;5023168;28;20030;-45
2022/06/16 03:59:15;;;;;;;2.75;0.52;;;15.50;99.90;;;;;;5017894;28;20070;-46
2022/06/16 04:01:40;;;;;;;2.15;0.32;;;15.50;99.90;;;;;;5023589;28;20053;-48
2022/06/16 04:04:07;;;;;;;1.33;0.20;;;15.60;99.90;;;;;;5021579;28;20152;-48
2022/06/16 04:06:35;;;;;;;2.83;0.28;;;15.50;99.90;;;;;;5005374;28;20389;-47
2022/06/16 04:09:03;;;;;;;1.85;0.28;;;15.60;99.90;;;;;;5020570;28;20033;-46
2022/06/16 04:11:32;;;;;;;2.15;0.30;;;15.60;99.90;;;;;;5021752;28;20034;-46
2022/06/16 04:14:04;;;;;;;2.53;0.30;;;15.60;99.90;;;;;;5021274;28;20136;-48
2022/06/16 04:16:39;;;;;;;1.25;0.22;;;15.60;99.90;;;;;;5040477;28;20049;-46
2022/06/16 04:19:06;;;;;;;3.30;0.40;;;15.60;99.90;;;;;;5018934;28;20053;-46
2022/06/16 04:21:32;;;;;;;2.88;0.30;;;15.70;99.90;;;;;;5025948;28;20042;-46
2022/06/16 04:23:58;;;;;;;2.38;0.25;;;15.70;99.90;;;;;;5020397;28;20038;-46
2022/06/16 04:26:24;;;;;;;2.78;0.32;;;15.70;99.90;;;;;;5018222;28;20046;-46
2022/06/16 04:28:50;;;;;;;1.92;0.30;;;15.70;99.90;;;;;;5025707;28;20045;-46
2022/06/16 04:31:16;;;;;;;2.78;0.20;;;15.70;99.90;;;;;;5010653;28;20042;-48
2022/06/16 04:33:42;;;;;;;1.80;0.30;;;15.70;99.90;;;;;;5022396;28;20333;-47
2022/06/16 04:36:08;;;;;;;1.73;0.30;;;15.70;99.90;;;;;;5017554;28;20495;-46
2022/06/16 04:38:35;;;;;;;2.47;0.25;;;15.70;99.90;;;;;;5024045;28;20380;-47
2022/06/16 04:41:01;;;;;;;2.35;0.30;;;15.70;99.90;;;;;;5020190;28;20418;-49
2022/06/16 04:43:29;;;;;;;3.00;0.30;;;15.80;99.90;;;;;;5015407;28;20042;-46
2022/06/16 04:45:55;;;;;;;2.20;0.20;;;15.80;99.90;;;;;;5042164;28;20041;-46
2022/06/16 04:48:21;;;;;;;1.60;0.20;;;15.80;99.90;;;;;;5027233;28;20095;-46
2022/06/16 04:50:47;;;;;;;1.65;0.20;;;15.80;99.90;;;;;;5019425;28;20049;-50
2022/06/16 04:53:13;;;;;;;2.35;0.30;;;15.80;99.90;;;;;;5014738;28;20087;-48
2022/06/16 04:55:38;;;;;;;3.38;0.30;;;15.80;99.90;;;;;;5021874;28;20201;-46
2022/06/16 04:58:05;;;;;;;2.67;0.40;;;15.80;99.90;;;;;;5023255;28;20060;-47
2022/06/16 05:00:31;;;;;;;2.33;0.30;;;15.80;99.90;;;;;;5022991;28;20034;-46
2022/06/16 05:02:57;;;;;;;1.45;0.20;;;15.80;99.90;;;;;;5020288;28;20128;-47
2022/06/16 05:05:23;;;;;;;2.80;0.30;;;15.80;99.90;;;;;;5022560;28;20399;-46
2022/06/16 05:07:50;;;;;;;2.60;0.30;;;15.80;99.90;;;;;;5022073;28;20176;-45
2022/06/16 05:10:16;;;;;;;1.60;0.20;;;15.80;99.90;;;;;;5018543;28;20452;-47
2022/06/16 05:12:41;;;;;;;2.55;0.30;;;15.80;99.90;;;;;;5021639;28;20103;-47
2022/06/16 05:15:08;;;;;;;2.83;0.32;;;15.90;99.90;;;;;;5021177;28;20107;-48
2022/06/16 05:17:34;;;;;;;1.52;0.32;;;15.90;99.90;;;;;;5023380;28;20113;-50
2022/06/16 05:19:59;;;;;;;2.92;0.20;;;15.90;99.90;;;;;;5037949;28;20122;-44
2022/06/16 05:22:25;;;;;;;2.08;0.30;;;16.20;99.90;;;;;;5016381;28;20034;-46
2022/06/16 05:24:51;;;;;;;2.00;0.40;;;16.80;99.90;;;;;;5016484;28;20044;-46
2022/06/16 05:27:17;;;;;;;2.58;0.30;;;17.50;99.90;;;;;;5020879;28;20041;-47
2022/06/16 05:29:43;;;;;;;1.80;0.20;;;17.90;99.90;;;;;;5011645;28;20045;-46
2022/06/16 05:32:11;;;;;;;1.33;0.20;;;18.00;99.90;;;;;;5012286;28;20575;-48
2022/06/16 05:34:38;;;;;;;1.67;0.25;;;17.90;99.90;;;;;;5026153;28;20053;-48
2022/06/16 05:37:04;;;;;;;2.25;0.30;;;17.80;99.90;;;;;;5032395;28;20128;-47
2022/06/16 05:39:30;;;;;;;1.88;0.20;;;17.80;99.90;;;;;;5024939;28;20491;-48
2022/06/16 05:41:56;;;;;;;2.08;0.30;;;17.70;99.90;;;;;;5030005;28;20091;-49
2022/06/16 05:44:22;;;;;;;2.35;0.20;;;17.70;99.90;;;;;;5026809;28;20038;-46
2022/06/16 05:46:48;;;;;;;1.13;0.20;;;17.70;99.90;;;;;;4995220;28;20044;-46
2022/06/16 05:49:15;;;;;;;1.25;0.20;;;17.60;99.90;;;;;;5029236;28;20041;-46
2022/06/16 05:51:41;;;;;;;1.63;0.20;;;17.60;99.90;;;;;;5024758;28;20116;-48
2022/06/16 05:54:08;;;;;;;2.63;0.20;;;17.60;99.90;;;;;;5031076;28;22186;-48
2022/06/16 05:56:34;;;;;;;2.42;0.30;;;17.60;99.90;;;;;;5030361;28;20040;-49
2022/06/16 05:59:00;;;;;;;2.90;0.30;;;17.70;99.90;;;;;;5027415;28;20510;-46
2022/06/16 06:01:26;;;;;;;1.50;0.20;;;17.70;99.90;;;;;;5009099;28;20037;-47
2022/06/16 06:03:52;;;;;;;2.20;0.20;;;17.70;99.90;;;;;;5019901;28;20060;-46
2022/06/16 06:06:18;;;;;;;1.65;0.40;;;17.70;99.90;;;;;;5028672;28;20037;-49
2022/06/16 06:17:21;;;;;;;1.85;0.30;;;17.80;99.90;;;;;;5015007;28;20046;-47
2022/06/16 06:19:47;;;;;;;1.63;0.20;;;17.80;99.90;;;;;;5025596;28;20033;-47
2022/06/16 06:22:19;;;;;;;1.08;0.10;;;17.90;99.90;;;;;;5027558;28;20107;-46
2022/06/16 06:24:52;;;;;;;2.80;0.25;;;17.90;99.90;;;;;;5013892;28;20128;-48
2022/06/16 06:27:26;;;;;;;1.65;0.20;;;18.00;99.90;;;;;;5020161;28;20073;-46
2022/06/16 06:29:51;;;;;;;2.10;0.20;;;18.00;99.90;;;;;;5013660;28;20121;-47
2022/06/16 06:32:19;;;;;;;1.88;0.40;;;18.00;99.90;;;;;;5020360;28;20123;-47
2022/06/16 06:34:45;;;;;;;1.63;0.20;;;18.10;99.90;;;;;;5022151;28;20393;-47
2022/06/16 06:37:17;;;;;;;2.05;0.30;;;18.10;99.90;;;;;;5019357;28;20045;-47
2022/06/16 06:39:43;;;;;;;3.10;0.30;;;18.20;99.90;;;;;;5017040;28;20046;-46
2022/06/16 06:42:09;;;;;;;2.33;0.20;;;18.20;99.90;;;;;;5016849;28;20040;-47
2022/06/16 06:44:35;;;;;;;3.50;0.20;;;18.30;99.90;;;;;;5013175;28;20463;-49
2022/06/16 06:47:01;;;;;;;3.08;0.45;;;18.40;99.90;;;;;;4983325;28;20076;-49
2022/06/16 06:49:28;;;;;;;1.40;0.30;;;18.40;99.90;;;;;;5011560;28;20041;-49
2022/06/16 06:51:54;;;;;;;1.88;0.20;;;18.40;99.90;;;;;;5027671;28;20063;-49
2022/06/16 06:54:20;;;;;;;1.60;0.30;;;18.50;99.90;;;;;;5025356;28;20032;-50
2022/06/16 06:56:48;;;;;;;1.98;0.20;;;18.50;99.90;;;;;;5021906;28;20483;-49
2022/06/16 06:59:18;;;;;;;1.77;0.32;;;18.60;99.90;;;;;;5032794;28;20038;-48
2022/06/16 07:01:49;;;;;;;1.58;0.30;;;18.70;99.90;;;;;;5008464;28;20133;-48
2022/06/16 07:04:15;;;;;;;1.85;0.30;;;18.70;99.90;;;;;;5039551;28;20032;-47
2022/06/16 07:06:41;;;;;;;1.77;0.20;;;18.80;99.90;;;;;;5026447;28;20120;-47
2022/06/16 07:09:09;;;;;;;1.88;0.20;;;18.80;99.90;;;;;;5038510;28;20095;-48
2022/06/16 07:11:36;;;;;;;2.42;0.30;;;18.90;99.90;;;;;;5031027;28;20041;-46
2022/06/16 07:14:01;;;;;;;1.80;0.30;;;18.90;99.90;;;;;;5026603;28;20132;-47
2022/06/16 07:16:27;;;;;;;2.80;0.20;;;19.00;99.90;;;;;;5022763;28;20133;-48
2022/06/16 07:18:53;;;;;;;2.55;0.20;;;19.00;99.90;;;;;;5018758;28;20056;-47
2022/06/16 07:21:19;;;;;;;1.75;0.30;;;19.10;99.90;;;;;;5028360;28;20037;-48
2022/06/16 07:23:44;;;;;;;2.58;0.40;;;19.20;99.90;;;;;;5000352;28;20029;-48
2022/06/16 07:26:11;;;;;;;2.58;0.40;;;19.20;99.90;;;;;;5016429;28;20115;-48
2022/06/16 07:28:37;;;;;;;4.60;0.40;;;19.30;99.90;;;;;;5009762;28;20072;-51
2022/06/16 07:31:03;;;;;;;2.15;0.30;;;19.40;99.90;;;;;;5027885;28;20400;-46
2022/06/16 07:33:29;;;;;;;2.30;0.40;;;19.40;99.90;;;;;;5027881;28;20718;-49
2022/06/16 07:35:55;;;;;;;3.22;0.30;;;19.50;99.90;;;;;;5035111;28;20442;-47
2022/06/16 07:38:24;;;;;;;2.90;0.30;;;19.50;99.90;;;;;;5002057;28;20044;-50
2022/06/16 07:40:50;;;;;;;6.05;0.30;;;19.60;99.90;;;;;;5031743;28;20049;-50
2022/06/16 07:43:15;;;;;;;2.05;0.20;;;19.60;99.90;;;;;;5016762;28;20069;-47
2022/06/16 07:45:42;;;;;;;2.83;0.30;;;19.70;99.90;;;;;;5025525;28;20103;-46
2022/06/16 07:48:08;;;;;;;2.80;0.22;;;19.70;99.90;;;;;;5028932;28;20427;-48
2022/06/16 07:50:37;;;;;;;2.85;0.30;;;19.80;99.90;;;;;;5028625;28;20125;-47
2022/06/16 07:53:07;;;;;;;1.52;0.20;;;19.90;99.90;;;;;;5031354;28;20137;-49
2022/06/16 07:55:34;;;;;;;3.13;0.20;;;19.90;99.90;;;;;;5028819;28;20032;-46
2022/06/16 07:58:00;;;;;;;2.50;0.30;;;20.00;99.90;;;;;;5041469;28;20775;-49
2022/06/16 08:00:31;;;;;;;2.30;0.20;;;20.00;99.90;;;;;;5036039;28;20123;-48
2022/06/16 08:02:57;;;;;;;2.80;0.30;;;20.10;99.90;;;;;;5028144;28;20045;-49
2022/06/16 08:05:23;;;;;;;2.50;0.40;;;20.20;99.90;;;;;;5046876;28;20055;-45
2022/06/16 08:07:49;;;;;;;2.15;0.30;;;20.30;99.90;;;;;;5042465;28;20048;-47
2022/06/16 08:10:26;;;;;;;2.45;0.30;;;20.40;99.90;;;;;;5030242;28;20042;-49
2022/06/16 08:12:52;;;;;;;2.42;0.20;;;20.40;99.90;;;;;;5030324;28;20042;-50
2022/06/16 08:15:17;;;;;;;3.72;0.38;;;20.50;99.90;;;;;;5027575;28;20368;-48
2022/06/16 08:17:47;;;;;;;3.25;0.25;;;20.50;99.90;;;;;;5040194;28;20048;-46
2022/06/16 08:20:13;;;;;;;1.48;0.20;;;20.60;99.90;;;;;;5030936;28;20049;-46
2022/06/16 08:22:39;;;;;;;1.77;0.20;;;20.70;99.90;;;;;;5031914;28;20049;-47
2022/06/16 08:25:08;;;;;;;1.27;0.20;;;20.70;99.90;;;;;;5028295;28;20038;-51
2022/06/16 08:27:37;;;;;;;1.65;0.20;;;20.80;99.90;;;;;;4999624;28;20069;-47
2022/06/16 08:30:08;;;;;;;2.92;0.40;;;20.90;99.90;;;;;;5030794;28;20042;-48
2022/06/16 08:32:34;;;;;;;2.03;0.25;;;21.00;99.90;;;;;;5001993;28;20049;-47
2022/06/16 08:35:00;;;;;;;1.80;0.20;;;21.00;99.90;;;;;;5022333;28;21291;-51
2022/06/16 08:37:25;;;;;;;2.67;0.25;;;21.00;99.90;;;;;;5024165;28;20136;-46
2022/06/16 08:39:51;;;;;;;3.38;0.20;;;21.10;99.90;;;;;;5006666;28;20037;-47
2022/06/16 08:42:51;;;;;;;3.75;0.30;;;21.10;99.90;;;;;;4993042;28;20772;-47
2022/06/16 08:45:36;;;;;;;2.10;0.28;;;21.20;99.90;;;;;;5033827;28;20046;-50
2022/06/16 08:48:24;;;;;;;2.88;0.30;;;21.30;99.90;;;;;;5041075;28;20388;-50
2022/06/16 08:51:18;;;;;;;1.73;0.30;;;21.30;99.90;;;;;;5003035;28;20029;-50
2022/06/16 08:54:40;;;;;;;2.60;0.20;;;21.40;99.90;;;;;;5027920;28;20053;-47
2022/06/16 08:57:11;;;;;;;1.95;0.20;;;21.40;99.90;;;;;;5011230;28;20566;-49
2022/06/16 09:00:09;;;;;;;2.28;0.30;;;21.50;99.90;;;;;;5023054;28;20404;-46
2022/06/16 09:02:34;;;;;;;8.98;0.88;;;21.60;99.90;;;;;;5023278;28;20058;-49
2022/06/16 09:05:15;;;;;;;16.92;2.25;;;21.60;99.90;;;;;;5014335;28;20037;-49
2022/06/16 09:07:57;;;;;;;19.88;1.50;;;21.70;99.90;;;;;;5017647;28;20033;-47
2022/06/16 09:10:48;;;;;;;7.55;0.90;;;21.80;99.90;;;;;;5014910;28;20112;-47
2022/06/16 09:13:26;;;;;;;40.33;4.35;;;21.80;99.90;;;;;;5011049;28;20445;-49
2022/06/16 09:16:19;;;;;;;38.35;3.75;;;21.90;99.90;;;;;;5005241;28;20083;-49
2022/06/16 09:19:00;;;;;;;39.47;4.15;;;22.00;99.90;;;;;;5012674;28;20528;-50
2022/06/16 09:21:50;;;;;;;103.05;11.23;;;22.10;99.90;;;;;;5009147;28;20107;-47
2022/06/16 09:24:56;;;;;;;43.05;4.05;;;22.20;99.90;;;;;;5024754;28;20399;-52
2022/06/16 09:27:28;;;;;;;62.35;6.07;;;22.30;99.90;;;;;;5027727;28;20152;-51
2022/06/16 09:30:04;;;;;;;32.50;3.25;;;22.30;99.80;;;;;;5014092;28;20048;-47
2022/06/16 09:32:40;;;;;;;46.67;4.30;;;22.40;99.70;;;;;;5016944;28;20046;-48
2022/06/16 09:35:18;;;;;;;32.17;3.08;;;22.40;99.30;;;;;;5023157;28;20047;-50
2022/06/16 09:37:55;;;;;;;17.88;1.52;;;22.40;99.60;;;;;;5012520;28;20033;-52
2022/06/16 09:40:40;;;;;;;30.73;3.25;;;22.50;99.30;;;;;;5023827;28;20034;-52
2022/06/16 09:43:10;;;;;;;21.25;2.35;;;22.60;99.40;;;;;;5026276;28;20053;-50
2022/06/16 09:45:53;;;;;;;18.55;1.55;;;22.70;99.30;;;;;;5028549;28;20541;-50
2022/06/16 09:48:23;;;;;;;25.33;1.95;;;22.70;98.10;;;;;;5025089;28;20070;-50
2022/06/16 09:51:01;;;;;;;21.30;1.65;;;22.70;97.70;;;;;;5011801;28;20543;-50
2022/06/16 09:53:40;;;;;;;11.35;0.80;;;22.80;97.90;;;;;;5016268;28;20102;-49
2022/06/16 09:56:37;;;;;;;16.80;1.55;;;22.90;97.40;;;;;;5022508;28;20041;-50
2022/06/16 09:59:13;;;;;;;9.85;0.65;;;22.90;97.40;;;;;;5018623;28;20053;-49
2022/06/16 10:01:54;;;;;;;9.20;0.47;;;23.00;97.20;;;;;;5025621;28;20042;-47
2022/06/16 10:04:20;;;;;;;5.10;0.50;;;23.10;96.10;;;;;;5013823;28;20045;-51
2022/06/16 10:07:07;;;;;;;7.03;0.50;;;23.20;95.20;;;;;;5026975;28;20466;-49
2022/06/16 10:09:54;;;;;;;4.55;0.47;;;23.20;95.10;;;;;;5025831;28;20046;-48
2022/06/16 10:12:50;;;;;;;2.08;0.38;;;23.30;94.40;;;;;;5025995;28;20068;-49
2022/06/16 10:15:54;;;;;;;4.78;0.50;;;23.30;94.40;;;;;;5041981;28;20492;-52
2022/06/16 10:18:21;;;;;;;2.63;0.30;;;23.40;93.80;;;;;;5027284;28;20037;-47
2022/06/16 10:20:46;;;;;;;3.45;0.38;;;23.40;92.30;;;;;;5024996;28;20124;-47
2022/06/16 10:23:25;;;;;;;4.07;0.40;;;23.50;92.10;;;;;;5028503;28;20113;-47
2022/06/16 10:25:58;;;;;;;2.15;0.28;;;23.50;92.40;;;;;;5026992;28;20057;-50
2022/06/16 10:28:32;;;;;;;3.92;0.25;;;23.60;92.60;;;;;;5027680;28;20041;-47
2022/06/16 10:31:00;;;;;;;2.53;0.30;;;23.60;93.00;;;;;;5014923;28;20046;-46
2022/06/16 10:33:29;;;;;;;2.35;0.30;;;23.70;92.80;;;;;;5011077;28;20099;-50
2022/06/16 10:36:07;;;;;;;3.65;0.30;;;23.70;91.70;;;;;;5024165;28;20045;-49
2022/06/16 10:38:58;;;;;;;4.22;0.20;;;23.80;91.90;;;;;;5032084;28;20056;-46
2022/06/16 10:41:32;;;;;;;3.45;0.20;;;23.90;91.00;;;;;;5023530;28;20084;-46
2022/06/16 10:44:01;;;;;;;3.10;0.30;;;23.90;91.30;;;;;;5023067;28;20048;-48
2022/06/16 10:46:44;;;;;;;1.40;0.20;;;24.00;90.30;;;;;;5028188;28;20090;-47
2022/06/16 10:49:15;;;;;;;;;;;24.00;90.80;;;;;;5014001;28;20041;-50
2022/06/16 10:51:54;;;;;;;3.75;0.30;;;24.10;91.60;;;;;;5028071;28;19917;-51
2022/06/16 10:54:25;;;;;;;3.33;0.40;;;24.10;90.60;;;;;;5024181;28;20533;-48
2022/06/16 10:57:14;;;;;;;2.45;0.20;;;24.20;89.60;;;;;;5032101;28;20133;-49
2022/06/16 10:59:46;;;;;;;1.02;0.20;;;24.30;90.10;;;;;;5028254;28;20116;-48
2022/06/16 11:02:18;;;;;;;2.13;0.30;;;24.30;89.10;;;;;;5030769;28;20033;-50
2022/06/16 11:04:51;;;;;;;3.95;0.40;;;24.30;86.80;;;;;;5015512;28;20138;-48
2022/06/16 11:07:22;;;;;;;3.65;0.30;;;24.40;86.90;;;;;;5020374;28;20038;-47
2022/06/16 11:09:49;;;;;;;20.40;1.70;;;24.40;86.70;;;;;;5025385;28;20076;-50
2022/06/16 11:12:17;;;;;;;31.27;2.80;;;24.50;85.90;;;;;;5020012;28;20049;-49
2022/06/16 11:14:54;;;;;;;13.55;1.00;;;24.60;86.30;;;;;;5029499;28;20038;-46
2022/06/16 11:17:27;;;;;;;12.57;1.40;;;24.60;86.30;;;;;;5028287;28;20567;-46
2022/06/16 11:20:04;;;;;;;5.63;0.63;;;24.70;86.70;;;;;;5030335;28;20053;-49
2022/06/16 11:22:32;;;;;;;6.25;0.57;;;24.70;87.20;;;;;;5023734;28;20099;-47
2022/06/16 11:25:45;;;;;;;8.38;0.52;;;24.80;85.80;;;;;;5031062;28;20045;-48
2022/06/16 11:28:11;;;;;;;5.70;0.40;;;24.80;86.80;;;;;;4990516;28;20037;-48
2022/06/16 11:30:39;;;;;;;4.03;0.40;;;24.90;88.20;;;;;;4991477;28;20113;-48
2022/06/16 11:34:06;;;;;;;3.00;0.40;;;24.90;87.30;;;;;;4997760;28;20041;-50
2022/06/16 11:36:13;;;;;;;11.00;1.00;;;25.00;88.30;;;;;;5031670;28;20075;-52
2022/06/16 11:39:06;;;;;;;5.10;0.40;;;25.00;87.70;;;;;;5034660;28;20132;-51
2022/06/16 11:41:32;;;;;;;4.90;0.40;;;25.10;88.80;;;;;;5035348;28;20523;-51
2022/06/16 11:44:11;;;;;;;2.90;0.38;;;25.10;89.70;;;;;;5015703;28;20084;-49
2022/06/16 11:46:57;;;;;;;2.25;0.40;;;25.20;90.10;;;;;;5032670;28;20132;-49
2022/06/16 11:49:44;;;;;;;3.13;0.50;;;25.20;89.90;;;;;;5029736;28;20037;-47
2022/06/16 11:52:20;;;;;;;3.22;0.32;;;25.30;88.60;;;;;;5035429;28;20124;-48
2022/06/16 11:54:49;;;;;;;5.78;0.60;;;25.30;87.60;;;;;;5036365;28;20041;-47
2022/06/16 11:57:22;;;;;;;3.58;0.40;;;25.30;86.10;;;;;;5036485;28;20037;-49
2022/06/16 12:00:00;;;;;;;36.70;3.47;;;25.40;86.10;;;;;;5028892;28;20502;-49
2022/06/16 12:03:03;;;;;;;23.67;2.45;;;25.40;84.70;;;;;;5034818;28;20052;-51
2022/06/16 12:05:58;;;;;;;10.48;1.13;;;25.50;85.20;;;;;;5016223;28;20084;-50
2022/06/16 12:08:56;;;;;;;7.82;0.90;;;25.40;86.40;;;;;;5012506;28;20073;-49
2022/06/16 12:11:49;;;;;;;6.93;0.98;;;25.50;86.40;;;;;;5027875;28;20042;-48
2022/06/16 12:14:34;;;;;;;;;;;25.50;85.10;;;;;;5023587;28;20103;-50
2022/06/16 12:17:24;;;;;;;24.17;3.35;;;25.50;86.90;;;;;;5011421;28;19961;-50
2022/06/16 12:19:59;;;;;;;38.80;3.88;;;25.60;84.80;;;;;;5024417;28;20045;-49
2022/06/16 12:22:57;;;;;;;22.83;2.33;;;25.60;84.20;;;;;;5018661;28;20108;-47
2022/06/16 12:25:28;;;;;;;16.92;1.65;;;25.60;83.70;;;;;;5040962;28;20077;-47
2022/06/16 12:28:17;;;;;;;8.75;1.23;;;25.70;84.20;;;;;;5021213;28;20063;-46
2022/06/16 12:31:13;;;;;;;7.60;1.05;;;25.80;84.30;;;;;;5030628;28;20042;-46
2022/06/16 12:34:01;;;;;;;6.93;1.15;;;25.80;84.90;;;;;;5031468;28;20093;-46
2022/06/16 12:36:32;;;;;;;8.82;0.95;;;25.90;85.80;;;;;;5032413;28;20045;-49
2022/06/16 12:39:09;;;;;;;5.47;0.73;;;25.90;85.70;;;;;;5011271;28;20033;-49
2022/06/16 12:41:41;;;;;;;4.55;0.50;;;26.00;84.60;;;;;;5011674;28;20144;-49
2022/06/16 12:44:30;;;;;;;6.35;0.50;;;26.00;83.90;;;;;;5023586;28;20073;-48
2022/06/16 12:47:01;;;;;;;3.58;0.50;;;26.00;82.70;;;;;;5029838;28;20400;-46
2022/06/16 12:49:29;;;;;;;3.30;0.38;;;26.00;84.20;;;;;;5027943;28;20083;-50
2022/06/16 12:52:19;;;;;;;3.85;0.40;;;26.00;84.60;;;;;;5027413;28;20046;-49
2022/06/16 12:54:55;;;;;;;1.95;0.30;;;26.10;83.40;;;;;;5015097;28;20798;-48
2022/06/16 12:57:31;;;;;;;2.63;0.30;;;26.10;81.90;;;;;;5007994;28;20049;-49
2022/06/16 13:00:03;;;;;;;1.80;0.30;;;26.10;80.80;;;;;;5028346;28;20037;-47
2022/06/16 13:02:39;;;;;;;2.90;0.40;;;26.20;79.50;;;;;;5025916;28;20045;-48
2022/06/16 13:05:09;;;;;;;4.30;0.50;;;26.20;78.70;;;;;;5027930;28;20033;-50
2022/06/16 13:07:52;;;;;;;6.05;0.40;;;26.20;78.10;;;;;;5027793;28;20080;-46
2022/06/16 13:10:18;;;;;;;3.08;0.40;;;26.30;77.90;;;;;;5031280;28;20029;-47
2022/06/16 13:12:54;;;;;;;4.82;0.60;;;26.40;77.30;;;;;;5037156;28;20081;-46
2022/06/16 13:15:31;;;;;;;3.25;0.40;;;26.40;75.00;;;;;;5026951;28;20150;-47
2022/06/16 13:18:08;;;;;;;3.10;0.38;;;26.50;74.80;;;;;;5035833;28;20042;-49
2022/06/16 13:20:34;;;;;;;3.53;0.30;;;26.50;73.20;;;;;;5028791;28;20059;-48
2022/06/16 13:23:15;;;;;;;3.08;0.43;;;26.50;72.10;;;;;;5013182;28;20610;-49
2022/06/16 13:25:44;;;;;;;3.67;0.30;;;26.50;71.60;;;;;;5030356;28;20081;-48
2022/06/16 13:28:26;;;;;;;55.10;7.28;;;26.60;71.10;;;;;;5025895;28;20188;-46
2022/06/16 13:31:23;;;;;;;21.42;2.40;;;26.60;71.80;;;;;;5018481;28;20035;-48